Hav Tind — OZ2071 — position and weather

sailwx.info

Track history (hours):
 
Tides and Currents Weather Stations Pressure Air Temp Water Temp Dewpoint Dewpoint Depression Visibility Wind Speed Wind Dir Waves Ship Positions

Hav Tind

Last reported at 2016-Aug-27 21:27 UTC. Time now 2016-Aug-27 22:19 UTC.
Position N 62°14' W 006°48'.

Length 60 m; draft 4 m.

Type: Cargo ship. MMSI: 231565000.

Date/timePositionNaut miles runAvg speedWind from/ knotsBaromVisibWave heightAir tempDewpointWater temp
2016-Aug-27 21:27N 62°14' W 006°48'0 0.0
2016-Aug-27 13:18N 62°14' W 006°48'0 0.0
2016-Aug-27 12:32N 62°14' W 006°48'0 0.0
2016-Aug-27 11:28N 62°14' W 006°48'0 0.0
2016-Aug-27 10:33N 62°14' W 006°48'0 0.0
2016-Aug-27 09:26N 62°14' W 006°48'0 0.0
2016-Aug-26 23:21N 62°14' W 006°48'0 0.0
2016-Aug-26 22:33N 62°14' W 006°48'0 0.0
2016-Aug-26 21:16N 62°14' W 006°48'0 0.0
2016-Aug-26 20:08N 62°14' W 006°48'0 0.0
2016-Aug-26 16:08N 62°14' W 006°48'0 0.0
2016-Aug-26 15:33N 62°14' W 006°48'0 0.5
2016-Aug-26 14:34N 62°14' W 006°47'5 4.9
2016-Aug-26 13:33N 62°16' W 006°57'0 0.0
2016-Aug-26 12:34N 62°16' W 006°57'7 7.1
2016-Aug-26 11:34N 62°14' W 006°43'5 5.0
2016-Aug-26 10:34N 62°12' W 006°32'0 0.0
2016-Aug-26 09:34N 62°12' W 006°32'3 2.8
2016-Aug-26 08:33N 62°12' W 006°38'5 5.0
2016-Aug-26 07:34N 62°14' W 006°48'0 0.0
2016-Aug-26 06:33N 62°14' W 006°48'0 0.0
2016-Aug-26 04:34N 62°14' W 006°48'0 0.0
2016-Aug-26 03:33N 62°14' W 006°48'0 0.0
2016-Aug-26 02:33N 62°14' W 006°48'0 0.0
2016-Aug-26 01:33N 62°14' W 006°48'0 0.0
2016-Aug-26 00:34N 62°14' W 006°48'0 0.0
2016-Aug-25 23:32N 62°14' W 006°48'0 0.0
2016-Aug-25 22:32N 62°14' W 006°48'0 0.0
2016-Aug-25 21:33N 62°14' W 006°48'0 0.0
2016-Aug-25 20:34N 62°14' W 006°48'0 0.0
2016-Aug-25 19:32N 62°14' W 006°48'0 0.0
2016-Aug-25 18:33N 62°14' W 006°48'0 0.0
2016-Aug-25 17:32N 62°14' W 006°48'0 0.0
2016-Aug-25 16:34N 62°14' W 006°48'0 0.0
2016-Aug-25 15:34N 62°14' W 006°48'1 0.8
2016-Aug-25 14:34N 62°13' W 006°48'3 2.8
2016-Aug-25 13:33N 62°14' W 006°42'9 9.0
2016-Aug-25 12:34N 62°06' W 006°32'1010.3
2016-Aug-25 11:34N 61°56' W 006°32'1010.2
2016-Aug-25 10:33N 61°46' W 006°32'9 9.3
2016-Aug-25 09:34N 61°37' W 006°38'8 2.4
2016-Aug-25 06:28N 61°30' W 006°45'18 9.6
2016-Aug-25 04:34N 61°48' W 006°33'10 9.8
2016-Aug-25 03:34N 61°57' W 006°30'9 9.1
2016-Aug-25 02:34N 62°06' W 006°33'1010.2
2016-Aug-25 01:33N 62°14' W 006°47'0 0.4
2016-Aug-25 00:32N 62°14' W 006°48'0 0.0
2016-Aug-24 23:33N 62°14' W 006°48'0 0.0
2016-Aug-24 22:33N 62°14' W 006°48'0 0.0
2016-Aug-24 21:32N 62°14' W 006°48'0 0.0
2016-Aug-24 20:26N 62°14' W 006°48'0 0.0
2016-Aug-24 19:33N 62°14' W 006°48'0 0.0
2016-Aug-24 18:33N 62°14' W 006°48'0 0.0
2016-Aug-24 17:33N 62°14' W 006°48'0 0.0
2016-Aug-24 16:33N 62°14' W 006°48'4 3.6
2016-Aug-24 15:33N 62°13' W 006°41'2 2.3
2016-Aug-24 14:33N 62°10' W 006°43'0 0.0
2016-Aug-24 13:33N 62°10' W 006°43'5 4.8
2016-Aug-24 12:33N 62°10' W 006°33'7 6.5
2016-Aug-24 11:33N 62°16' W 006°28'1 0.6
2016-Aug-24 10:33N 62°16' W 006°29'1 0.6
2016-Aug-24 09:33N 62°17' W 006°29'0 0.1
2016-Aug-24 08:33N 62°17' W 006°29'0 0.4
2016-Aug-24 07:33N 62°17' W 006°28'7 6.9
2016-Aug-24 06:33N 62°10' W 006°31'9 4.4
2016-Aug-24 04:33N 62°14' W 006°48'0 0.0
2016-Aug-24 03:33N 62°14' W 006°48'0 0.0
2016-Aug-24 02:33N 62°14' W 006°48'0 0.0
2016-Aug-24 01:33N 62°14' W 006°48'0 0.0
2016-Aug-24 00:33N 62°14' W 006°48'0 0.0
2016-Aug-23 23:33N 62°14' W 006°48'0 0.0
2016-Aug-23 22:33N 62°14' W 006°48'0 0.0
2016-Aug-23 21:33N 62°14' W 006°48'0 0.0
2016-Aug-23 20:33N 62°14' W 006°48'0 0.0
2016-Aug-23 19:33N 62°14' W 006°48'0 0.0
2016-Aug-23 18:33N 62°14' W 006°48'0 0.0
2016-Aug-23 17:29N 62°14' W 006°48'0 0.0
2016-Aug-23 16:32N 62°14' W 006°48'0 0.0
2016-Aug-23 15:33N 62°14' W 006°48'7 7.5
2016-Aug-23 14:33N 62°11' W 006°34'4 3.8
2016-Aug-23 13:33N 62°14' W 006°30'0 0.0
2016-Aug-23 12:33N 62°14' W 006°30'0 0.0
2016-Aug-23 11:33N 62°14' W 006°30'3 2.8
2016-Aug-23 10:33N 62°12' W 006°32'0 0.4
2016-Aug-23 09:33N 62°12' W 006°32'1 1.3
2016-Aug-23 08:33N 62°11' W 006°35'7 7.0
2016-Aug-23 07:33N 62°14' W 006°48'0 0.0
2016-Aug-23 06:31N 62°14' W 006°48'0 0.0
2016-Aug-23 05:29N 62°14' W 006°48'0 0.0
2016-Aug-23 04:33N 62°14' W 006°48'0 0.0
2016-Aug-23 03:33N 62°14' W 006°48'0 0.0
2016-Aug-23 02:33N 62°14' W 006°48'0 0.0
2016-Aug-23 01:31N 62°14' W 006°48'0 0.0
2016-Aug-23 00:22N 62°14' W 006°48'0 0.0
2016-Aug-22 23:25N 62°14' W 006°48'0 0.0
2016-Aug-22 22:31N 62°14' W 006°48'0 0.0
2016-Aug-22 21:33N 62°14' W 006°48'0 0.0
2016-Aug-22 20:33N 62°14' W 006°48'0 0.0
2016-Aug-22 19:33N 62°14' W 006°48'0 0.0
2016-Aug-22 18:33N 62°14' W 006°48'0 0.0
2016-Aug-22 17:32N 62°14' W 006°48'6 6.5
2016-Aug-22 16:33N 62°11' W 006°36'7 7.5
2016-Aug-22 15:33N 62°04' W 006°40'5 4.9
2016-Aug-22 14:33N 61°59' W 006°45'0 0.0
2016-Aug-22 13:34N 61°59' W 006°45'1 0.7
2016-Aug-22 12:33N 61°60' W 006°44'9 9.4
2016-Aug-22 11:33N 62°08' W 006°34'9 9.4
2016-Aug-22 10:33N 62°16' W 006°46'5 5.2
2016-Aug-22 09:33N 62°16' W 006°57'1 1.2
2016-Aug-22 08:33N 62°17' W 006°55'4 4.4
2016-Aug-22 07:33N 62°14' W 006°48'0 0.0
2016-Aug-22 06:33N 62°14' W 006°48'0 0.2
2016-Aug-22 05:33N 62°14' W 006°48'0 0.0
2016-Aug-22 04:33N 62°14' W 006°48'0 0.0
2016-Aug-22 03:33N 62°14' W 006°48'0 0.0
2016-Aug-22 02:30N 62°14' W 006°48'0 0.0
2016-Aug-22 01:33N 62°14' W 006°48'0 0.0
2016-Aug-22 00:33N 62°14' W 006°48'0 0.0
2016-Aug-21 23:33N 62°14' W 006°48'0 0.0
2016-Aug-21 22:33N 62°14' W 006°48'0 0.0
2016-Aug-21 21:33N 62°14' W 006°48'0 0.0
2016-Aug-21 20:33N 62°14' W 006°48'0 0.0
2016-Aug-21 19:31N 62°14' W 006°48'0 0.0
2016-Aug-21 18:19N 62°14' W 006°48'0 0.0
2016-Aug-21 17:33N 62°14' W 006°48'0 0.0
2016-Aug-21 16:23N 62°14' W 006°48'0 0.0
2016-Aug-21 15:33N 62°14' W 006°48'0 0.0
2016-Aug-21 14:33N 62°14' W 006°48'0 0.0
2016-Aug-21 13:32N 62°14' W 006°48'0 0.0
2016-Aug-21 12:32N 62°14' W 006°48'0 0.0
2016-Aug-21 11:33N 62°14' W 006°48'0 0.0
2016-Aug-21 10:33N 62°14' W 006°48'0 0.0
2016-Aug-21 09:33N 62°14' W 006°48'0 0.0
2016-Aug-21 08:32N 62°14' W 006°48'0 0.0
2016-Aug-21 07:33N 62°14' W 006°48'0 0.0
2016-Aug-21 06:33N 62°14' W 006°48'0 0.0
2016-Aug-21 05:32N 62°14' W 006°48'0 0.0
2016-Aug-21 04:31N 62°14' W 006°48'0 0.0
2016-Aug-21 03:24N 62°14' W 006°48'0 0.0
2016-Aug-21 02:33N 62°14' W 006°48'0 0.0
2016-Aug-21 01:34N 62°14' W 006°48'0 0.0
2016-Aug-21 00:33N 62°14' W 006°48'0 0.0
2016-Aug-20 23:33N 62°14' W 006°48'0 0.0
2016-Aug-20 22:33N 62°14' W 006°48'0 0.0
2016-Aug-20 21:33N 62°14' W 006°48'0 0.0
2016-Aug-20 20:33N 62°14' W 006°48'0 0.0
2016-Aug-20 19:33N 62°14' W 006°48'0 0.0
2016-Aug-20 18:33N 62°14' W 006°48'0 0.0
2016-Aug-20 17:31N 62°14' W 006°48'0 0.0
2016-Aug-20 16:33N 62°14' W 006°48'0 0.0
2016-Aug-20 15:30N 62°14' W 006°48'0 0.0
2016-Aug-20 14:33N 62°14' W 006°48'0 0.0
2016-Aug-20 13:32N 62°14' W 006°48'0 0.0
2016-Aug-20 12:33N 62°14' W 006°48'0 0.0
2016-Aug-20 11:33N 62°14' W 006°48'0 0.0
2016-Aug-20 10:33N 62°14' W 006°48'0 0.0
2016-Aug-20 09:32N 62°14' W 006°48'0 0.0
2016-Aug-20 08:31N 62°14' W 006°48'0 0.0
2016-Aug-20 07:33N 62°14' W 006°48'0 0.0
2016-Aug-20 06:33N 62°14' W 006°48'0 0.0
2016-Aug-20 05:33N 62°14' W 006°48'0 0.0
2016-Aug-20 04:33N 62°14' W 006°48'0 0.0
2016-Aug-20 03:32N 62°14' W 006°48'0 0.0
2016-Aug-20 02:32N 62°14' W 006°48'0 0.0
2016-Aug-20 01:33N 62°14' W 006°48'0 0.0
2016-Aug-20 00:33N 62°14' W 006°48'0 0.0
2016-Aug-19 23:33N 62°14' W 006°48'0 0.0
2016-Aug-19 22:33N 62°14' W 006°48'0 0.0
2016-Aug-19 21:33N 62°14' W 006°48'0 0.0
2016-Aug-19 20:33N 62°14' W 006°48'0 0.0
2016-Aug-19 19:33N 62°14' W 006°48'0 0.0
2016-Aug-19 18:33N 62°14' W 006°48'0 0.0
2016-Aug-19 17:33N 62°14' W 006°48'0 0.0
2016-Aug-19 16:33N 62°14' W 006°48'0 0.0
2016-Aug-19 15:30N 62°14' W 006°48'0 0.0
2016-Aug-19 14:32N 62°14' W 006°48'0 0.0
2016-Aug-19 13:30N 62°14' W 006°48'0 0.0
2016-Aug-19 12:29N 62°14' W 006°48'3 3.6
2016-Aug-19 11:33N 62°18' W 006°50'3 3.3
2016-Aug-19 10:32N 62°16' W 006°57'4 3.8
2016-Aug-19 09:33N 62°17' W 006°49'8 7.9
2016-Aug-19 08:33N 62°11' W 006°36'2 1.9
2016-Aug-19 07:33N 62°12' W 006°32'1 1.5
2016-Aug-19 06:33N 62°12' W 006°36'6 6.1
2016-Aug-19 05:30N 62°14' W 006°48'0 0.0
2016-Aug-19 04:33N 62°14' W 006°48'0 0.0
2016-Aug-19 03:33N 62°14' W 006°48'0 0.0
2016-Aug-19 02:33N 62°14' W 006°48'0 0.0
2016-Aug-19 01:33N 62°14' W 006°48'0 0.0
2016-Aug-19 00:33N 62°14' W 006°48'0 0.0
2016-Aug-18 23:33N 62°14' W 006°48'0 0.0
2016-Aug-18 22:33N 62°14' W 006°48'0 0.0
2016-Aug-18 21:33N 62°14' W 006°48'0 0.0
2016-Aug-18 20:33N 62°14' W 006°48'0 0.0
2016-Aug-18 19:33N 62°14' W 006°48'0 0.0
2016-Aug-18 18:33N 62°14' W 006°48'0 0.0
2016-Aug-18 17:33N 62°14' W 006°48'0 0.0
2016-Aug-18 16:33N 62°14' W 006°48'0 0.0
2016-Aug-18 15:33N 62°14' W 006°48'0 0.0
2016-Aug-18 14:33N 62°14' W 006°48'1 0.9
2016-Aug-18 13:33N 62°13' W 006°48'1 0.8
2016-Aug-18 12:33N 62°14' W 006°48'0 0.0
2016-Aug-18 11:33N 62°14' W 006°48'1 0.9
2016-Aug-18 10:33N 62°14' W 006°46'4 4.0
2016-Aug-18 09:33N 62°10' W 006°43'0 0.1
2016-Aug-18 08:33N 62°10' W 006°43'3 2.6
2016-Aug-18 07:34N 62°12' W 006°39'5 4.5
2016-Aug-18 06:32N 62°14' W 006°48'0 0.0
2016-Aug-18 05:34N 62°14' W 006°48'0 0.0
2016-Aug-18 04:33N 62°14' W 006°48'0 0.0
2016-Aug-18 03:33N 62°14' W 006°48'0 0.0
2016-Aug-18 02:33N 62°14' W 006°48'0 0.0
2016-Aug-18 01:33N 62°14' W 006°48'0 0.0
2016-Aug-18 00:33N 62°14' W 006°48'0 0.0
2016-Aug-17 23:33N 62°14' W 006°48'0 0.0
2016-Aug-17 22:32N 62°14' W 006°48'0 0.0
2016-Aug-17 21:33N 62°14' W 006°48'  
Track history (hours):
 
Tides and Currents Weather Stations Pressure Air Temp Water Temp Dewpoint Dewpoint Depression Visibility Wind Speed Wind Dir Waves Ship Positions

Hav Tind

Last reported at 2016-Aug-27 21:27 UTC. Time now 2016-Aug-27 22:19 UTC.
Position N 62°14' W 006°48'.

Length 60 m; draft 4 m.

Type: Cargo ship. MMSI: 231565000.

Date/timePositionNaut miles runAvg speedWind from/ knotsBaromVisibWave heightAir tempDewpointWater temp
2016-Aug-27 21:27N 62°14' W 006°48'0 0.0
2016-Aug-27 13:18N 62°14' W 006°48'0 0.0
2016-Aug-27 12:32N 62°14' W 006°48'0 0.0
2016-Aug-27 11:28N 62°14' W 006°48'0 0.0
2016-Aug-27 10:33N 62°14' W 006°48'0 0.0
2016-Aug-27 09:26N 62°14' W 006°48'0 0.0
2016-Aug-26 23:21N 62°14' W 006°48'0 0.0
2016-Aug-26 22:33N 62°14' W 006°48'0 0.0
2016-Aug-26 21:16N 62°14' W 006°48'0 0.0
2016-Aug-26 20:08N 62°14' W 006°48'0 0.0
2016-Aug-26 16:08N 62°14' W 006°48'0 0.0
2016-Aug-26 15:33N 62°14' W 006°48'0 0.5
2016-Aug-26 14:34N 62°14' W 006°47'5 4.9
2016-Aug-26 13:33N 62°16' W 006°57'0 0.0
2016-Aug-26 12:34N 62°16' W 006°57'7 7.1
2016-Aug-26 11:34N 62°14' W 006°43'5 5.0
2016-Aug-26 10:34N 62°12' W 006°32'0 0.0
2016-Aug-26 09:34N 62°12' W 006°32'3 2.8
2016-Aug-26 08:33N 62°12' W 006°38'5 5.0
2016-Aug-26 07:34N 62°14' W 006°48'0 0.0
2016-Aug-26 06:33N 62°14' W 006°48'0 0.0
2016-Aug-26 04:34N 62°14' W 006°48'0 0.0
2016-Aug-26 03:33N 62°14' W 006°48'0 0.0
2016-Aug-26 02:33N 62°14' W 006°48'0 0.0
2016-Aug-26 01:33N 62°14' W 006°48'0 0.0
2016-Aug-26 00:34N 62°14' W 006°48'0 0.0
2016-Aug-25 23:32N 62°14' W 006°48'0 0.0
2016-Aug-25 22:32N 62°14' W 006°48'0 0.0
2016-Aug-25 21:33N 62°14' W 006°48'0 0.0
2016-Aug-25 20:34N 62°14' W 006°48'0 0.0
2016-Aug-25 19:32N 62°14' W 006°48'0 0.0
2016-Aug-25 18:33N 62°14' W 006°48'0 0.0
2016-Aug-25 17:32N 62°14' W 006°48'0 0.0
2016-Aug-25 16:34N 62°14' W 006°48'0 0.0
2016-Aug-25 15:34N 62°14' W 006°48'1 0.8
2016-Aug-25 14:34N 62°13' W 006°48'3 2.8
2016-Aug-25 13:33N 62°14' W 006°42'9 9.0
2016-Aug-25 12:34N 62°06' W 006°32'1010.3
2016-Aug-25 11:34N 61°56' W 006°32'1010.2
2016-Aug-25 10:33N 61°46' W 006°32'9 9.3
2016-Aug-25 09:34N 61°37' W 006°38'8 2.4
2016-Aug-25 06:28N 61°30' W 006°45'18 9.6
2016-Aug-25 04:34N 61°48' W 006°33'10 9.8
2016-Aug-25 03:34N 61°57' W 006°30'9 9.1
2016-Aug-25 02:34N 62°06' W 006°33'1010.2
2016-Aug-25 01:33N 62°14' W 006°47'0 0.4
2016-Aug-25 00:32N 62°14' W 006°48'0 0.0
2016-Aug-24 23:33N 62°14' W 006°48'0 0.0
2016-Aug-24 22:33N 62°14' W 006°48'0 0.0
2016-Aug-24 21:32N 62°14' W 006°48'0 0.0
2016-Aug-24 20:26N 62°14' W 006°48'0 0.0
2016-Aug-24 19:33N 62°14' W 006°48'0 0.0
2016-Aug-24 18:33N 62°14' W 006°48'0 0.0
2016-Aug-24 17:33N 62°14' W 006°48'0 0.0
2016-Aug-24 16:33N 62°14' W 006°48'4 3.6
2016-Aug-24 15:33N 62°13' W 006°41'2 2.3
2016-Aug-24 14:33N 62°10' W 006°43'0 0.0
2016-Aug-24 13:33N 62°10' W 006°43'5 4.8
2016-Aug-24 12:33N 62°10' W 006°33'7 6.5
2016-Aug-24 11:33N 62°16' W 006°28'1 0.6
2016-Aug-24 10:33N 62°16' W 006°29'1 0.6
2016-Aug-24 09:33N 62°17' W 006°29'0 0.1
2016-Aug-24 08:33N 62°17' W 006°29'0 0.4
2016-Aug-24 07:33N 62°17' W 006°28'7 6.9
2016-Aug-24 06:33N 62°10' W 006°31'9 4.4
2016-Aug-24 04:33N 62°14' W 006°48'0 0.0
2016-Aug-24 03:33N 62°14' W 006°48'0 0.0
2016-Aug-24 02:33N 62°14' W 006°48'0 0.0
2016-Aug-24 01:33N 62°14' W 006°48'0 0.0
2016-Aug-24 00:33N 62°14' W 006°48'0 0.0
2016-Aug-23 23:33N 62°14' W 006°48'0 0.0
2016-Aug-23 22:33N 62°14' W 006°48'0 0.0
2016-Aug-23 21:33N 62°14' W 006°48'0 0.0
2016-Aug-23 20:33N 62°14' W 006°48'0 0.0
2016-Aug-23 19:33N 62°14' W 006°48'0 0.0
2016-Aug-23 18:33N 62°14' W 006°48'0 0.0
2016-Aug-23 17:29N 62°14' W 006°48'0 0.0
2016-Aug-23 16:32N 62°14' W 006°48'0 0.0
2016-Aug-23 15:33N 62°14' W 006°48'7 7.5
2016-Aug-23 14:33N 62°11' W 006°34'4 3.8
2016-Aug-23 13:33N 62°14' W 006°30'0 0.0
2016-Aug-23 12:33N 62°14' W 006°30'0 0.0
2016-Aug-23 11:33N 62°14' W 006°30'3 2.8
2016-Aug-23 10:33N 62°12' W 006°32'0 0.4
2016-Aug-23 09:33N 62°12' W 006°32'1 1.3
2016-Aug-23 08:33N 62°11' W 006°35'7 7.0
2016-Aug-23 07:33N 62°14' W 006°48'0 0.0
2016-Aug-23 06:31N 62°14' W 006°48'0 0.0
2016-Aug-23 05:29N 62°14' W 006°48'0 0.0
2016-Aug-23 04:33N 62°14' W 006°48'0 0.0
2016-Aug-23 03:33N 62°14' W 006°48'0 0.0
2016-Aug-23 02:33N 62°14' W 006°48'0 0.0
2016-Aug-23 01:31N 62°14' W 006°48'0 0.0
2016-Aug-23 00:22N 62°14' W 006°48'0 0.0
2016-Aug-22 23:25N 62°14' W 006°48'0 0.0
2016-Aug-22 22:31N 62°14' W 006°48'0 0.0
2016-Aug-22 21:33N 62°14' W 006°48'0 0.0
2016-Aug-22 20:33N 62°14' W 006°48'0 0.0
2016-Aug-22 19:33N 62°14' W 006°48'0 0.0
2016-Aug-22 18:33N 62°14' W 006°48'0 0.0
2016-Aug-22 17:32N 62°14' W 006°48'6 6.5
2016-Aug-22 16:33N 62°11' W 006°36'7 7.5
2016-Aug-22 15:33N 62°04' W 006°40'5 4.9
2016-Aug-22 14:33N 61°59' W 006°45'0 0.0
2016-Aug-22 13:34N 61°59' W 006°45'1 0.7
2016-Aug-22 12:33N 61°60' W 006°44'9 9.4
2016-Aug-22 11:33N 62°08' W 006°34'9 9.4
2016-Aug-22 10:33N 62°16' W 006°46'5 5.2
2016-Aug-22 09:33N 62°16' W 006°57'1 1.2
2016-Aug-22 08:33N 62°17' W 006°55'4 4.4
2016-Aug-22 07:33N 62°14' W 006°48'0 0.0
2016-Aug-22 06:33N 62°14' W 006°48'0 0.2
2016-Aug-22 05:33N 62°14' W 006°48'0 0.0
2016-Aug-22 04:33N 62°14' W 006°48'0 0.0
2016-Aug-22 03:33N 62°14' W 006°48'0 0.0
2016-Aug-22 02:30N 62°14' W 006°48'0 0.0
2016-Aug-22 01:33N 62°14' W 006°48'0 0.0
2016-Aug-22 00:33N 62°14' W 006°48'0 0.0
2016-Aug-21 23:33N 62°14' W 006°48'0 0.0
2016-Aug-21 22:33N 62°14' W 006°48'0 0.0
2016-Aug-21 21:33N 62°14' W 006°48'0 0.0
2016-Aug-21 20:33N 62°14' W 006°48'0 0.0
2016-Aug-21 19:31N 62°14' W 006°48'0 0.0
2016-Aug-21 18:19N 62°14' W 006°48'0 0.0
2016-Aug-21 17:33N 62°14' W 006°48'0 0.0
2016-Aug-21 16:23N 62°14' W 006°48'0 0.0
2016-Aug-21 15:33N 62°14' W 006°48'0 0.0
2016-Aug-21 14:33N 62°14' W 006°48'0 0.0
2016-Aug-21 13:32N 62°14' W 006°48'0 0.0
2016-Aug-21 12:32N 62°14' W 006°48'0 0.0
2016-Aug-21 11:33N 62°14' W 006°48'0 0.0
2016-Aug-21 10:33N 62°14' W 006°48'0 0.0
2016-Aug-21 09:33N 62°14' W 006°48'0 0.0
2016-Aug-21 08:32N 62°14' W 006°48'0 0.0
2016-Aug-21 07:33N 62°14' W 006°48'0 0.0
2016-Aug-21 06:33N 62°14' W 006°48'0 0.0
2016-Aug-21 05:32N 62°14' W 006°48'0 0.0
2016-Aug-21 04:31N 62°14' W 006°48'0 0.0
2016-Aug-21 03:24N 62°14' W 006°48'0 0.0
2016-Aug-21 02:33N 62°14' W 006°48'0 0.0
2016-Aug-21 01:34N 62°14' W 006°48'0 0.0
2016-Aug-21 00:33N 62°14' W 006°48'0 0.0
2016-Aug-20 23:33N 62°14' W 006°48'0 0.0
2016-Aug-20 22:33N 62°14' W 006°48'0 0.0
2016-Aug-20 21:33N 62°14' W 006°48'0 0.0
2016-Aug-20 20:33N 62°14' W 006°48'0 0.0
2016-Aug-20 19:33N 62°14' W 006°48'0 0.0
2016-Aug-20 18:33N 62°14' W 006°48'0 0.0
2016-Aug-20 17:31N 62°14' W 006°48'0 0.0
2016-Aug-20 16:33N 62°14' W 006°48'0 0.0
2016-Aug-20 15:30N 62°14' W 006°48'0 0.0
2016-Aug-20 14:33N 62°14' W 006°48'0 0.0
2016-Aug-20 13:32N 62°14' W 006°48'0 0.0
2016-Aug-20 12:33N 62°14' W 006°48'0 0.0
2016-Aug-20 11:33N 62°14' W 006°48'0 0.0
2016-Aug-20 10:33N 62°14' W 006°48'0 0.0
2016-Aug-20 09:32N 62°14' W 006°48'0 0.0
2016-Aug-20 08:31N 62°14' W 006°48'0 0.0
2016-Aug-20 07:33N 62°14' W 006°48'0 0.0
2016-Aug-20 06:33N 62°14' W 006°48'0 0.0
2016-Aug-20 05:33N 62°14' W 006°48'0 0.0
2016-Aug-20 04:33N 62°14' W 006°48'0 0.0
2016-Aug-20 03:32N 62°14' W 006°48'0 0.0
2016-Aug-20 02:32N 62°14' W 006°48'0 0.0
2016-Aug-20 01:33N 62°14' W 006°48'0 0.0
2016-Aug-20 00:33N 62°14' W 006°48'0 0.0
2016-Aug-19 23:33N 62°14' W 006°48'0 0.0
2016-Aug-19 22:33N 62°14' W 006°48'0 0.0
2016-Aug-19 21:33N 62°14' W 006°48'0 0.0
2016-Aug-19 20:33N 62°14' W 006°48'0 0.0
2016-Aug-19 19:33N 62°14' W 006°48'0 0.0
2016-Aug-19 18:33N 62°14' W 006°48'0 0.0
2016-Aug-19 17:33N 62°14' W 006°48'0 0.0
2016-Aug-19 16:33N 62°14' W 006°48'0 0.0
2016-Aug-19 15:30N 62°14' W 006°48'0 0.0
2016-Aug-19 14:32N 62°14' W 006°48'0 0.0
2016-Aug-19 13:30N 62°14' W 006°48'0 0.0
2016-Aug-19 12:29N 62°14' W 006°48'3 3.6
2016-Aug-19 11:33N 62°18' W 006°50'3 3.3
2016-Aug-19 10:32N 62°16' W 006°57'4 3.8
2016-Aug-19 09:33N 62°17' W 006°49'8 7.9
2016-Aug-19 08:33N 62°11' W 006°36'2 1.9
2016-Aug-19 07:33N 62°12' W 006°32'1 1.5
2016-Aug-19 06:33N 62°12' W 006°36'6 6.1
2016-Aug-19 05:30N 62°14' W 006°48'0 0.0
2016-Aug-19 04:33N 62°14' W 006°48'0 0.0
2016-Aug-19 03:33N 62°14' W 006°48'0 0.0
2016-Aug-19 02:33N 62°14' W 006°48'0 0.0
2016-Aug-19 01:33N 62°14' W 006°48'0 0.0
2016-Aug-19 00:33N 62°14' W 006°48'0 0.0
2016-Aug-18 23:33N 62°14' W 006°48'0 0.0
2016-Aug-18 22:33N 62°14' W 006°48'0 0.0
2016-Aug-18 21:33N 62°14' W 006°48'0 0.0
2016-Aug-18 20:33N 62°14' W 006°48'0 0.0
2016-Aug-18 19:33N 62°14' W 006°48'0 0.0
2016-Aug-18 18:33N 62°14' W 006°48'0 0.0
2016-Aug-18 17:33N 62°14' W 006°48'0 0.0
2016-Aug-18 16:33N 62°14' W 006°48'0 0.0
2016-Aug-18 15:33N 62°14' W 006°48'0 0.0
2016-Aug-18 14:33N 62°14' W 006°48'1 0.9
2016-Aug-18 13:33N 62°13' W 006°48'1 0.8
2016-Aug-18 12:33N 62°14' W 006°48'0 0.0
2016-Aug-18 11:33N 62°14' W 006°48'1 0.9
2016-Aug-18 10:33N 62°14' W 006°46'4 4.0
2016-Aug-18 09:33N 62°10' W 006°43'0 0.1
2016-Aug-18 08:33N 62°10' W 006°43'3 2.6
2016-Aug-18 07:34N 62°12' W 006°39'5 4.5
2016-Aug-18 06:32N 62°14' W 006°48'0 0.0
2016-Aug-18 05:34N 62°14' W 006°48'0 0.0
2016-Aug-18 04:33N 62°14' W 006°48'0 0.0
2016-Aug-18 03:33N 62°14' W 006°48'0 0.0
2016-Aug-18 02:33N 62°14' W 006°48'0 0.0
2016-Aug-18 01:33N 62°14' W 006°48'0 0.0
2016-Aug-18 00:33N 62°14' W 006°48'0 0.0
2016-Aug-17 23:33N 62°14' W 006°48'0 0.0
2016-Aug-17 22:32N 62°14' W 006°48'0 0.0
2016-Aug-17 21:33N 62°14' W 006°48'  

Dump ship's entire track history